sensor_id;sensor_type;location;lat;lon;timestamp;temperature;humidity
25024;DHT22;13033;50.936;5.334;2024-01-06T00:01:26;8.30;99.90
25024;DHT22;13033;50.936;5.334;2024-01-06T00:03:51;8.30;99.90
25024;DHT22;13033;50.936;5.334;2024-01-06T00:06:17;8.40;99.90
25024;DHT22;13033;50.936;5.334;2024-01-06T00:08:43;8.30;99.90
25024;DHT22;13033;50.936;5.334;2024-01-06T00:11:09;8.30;99.90
25024;DHT22;13033;50.936;5.334;2024-01-06T00:13:35;8.40;99.90
25024;DHT22;13033;50.936;5.334;2024-01-06T00:16:01;8.40;99.90
25024;DHT22;13033;50.936;5.334;2024-01-06T00:18:27;8.50;99.90
25024;DHT22;13033;50.936;5.334;2024-01-06T00:20:53;8.60;99.90
25024;DHT22;13033;50.936;5.334;2024-01-06T00:23:18;8.60;99.90
25024;DHT22;13033;50.936;5.334;2024-01-06T00:25:44;8.60;99.90
25024;DHT22;13033;50.936;5.334;2024-01-06T00:28:10;8.60;99.90
25024;DHT22;13033;50.936;5.334;2024-01-06T00:30:35;8.70;99.90
25024;DHT22;13033;50.936;5.334;2024-01-06T00:33:01;8.70;99.90
25024;DHT22;13033;50.936;5.334;2024-01-06T00:35:27;8.70;99.90
25024;DHT22;13033;50.936;5.334;2024-01-06T00:37:52;8.80;99.90
25024;DHT22;13033;50.936;5.334;2024-01-06T00:40:18;8.70;99.90
25024;DHT22;13033;50.936;5.334;2024-01-06T00:42:45;8.70;99.90
25024;DHT22;13033;50.936;5.334;2024-01-06T00:45:13;8.70;99.90
25024;DHT22;13033;50.936;5.334;2024-01-06T00:47:39;8.70;99.90
25024;DHT22;13033;50.936;5.334;2024-01-06T00:50:05;8.60;99.90
25024;DHT22;13033;50.936;5.334;2024-01-06T00:52:31;8.70;99.90
25024;DHT22;13033;50.936;5.334;2024-01-06T00:54:56;8.70;99.90
25024;DHT22;13033;50.936;5.334;2024-01-06T00:57:22;8.60;99.90
25024;DHT22;13033;50.936;5.334;2024-01-06T00:59:49;8.60;99.90
25024;DHT22;13033;50.936;5.334;2024-01-06T01:02:16;8.60;99.90
25024;DHT22;13033;50.936;5.334;2024-01-06T01:04:41;8.50;99.90
25024;DHT22;13033;50.936;5.334;2024-01-06T01:07:07;8.50;99.90
25024;DHT22;13033;50.936;5.334;2024-01-06T01:09:33;8.50;99.90
25024;DHT22;13033;50.936;5.334;2024-01-06T01:12:00;8.50;99.90
25024;DHT22;13033;50.936;5.334;2024-01-06T01:14:25;8.70;99.90
25024;DHT22;13033;50.936;5.334;2024-01-06T01:16:51;8.70;99.90
25024;DHT22;13033;50.936;5.334;2024-01-06T01:19:17;8.70;99.90
25024;DHT22;13033;50.936;5.334;2024-01-06T01:21:42;8.70;99.90
25024;DHT22;13033;50.936;5.334;2024-01-06T01:24:08;8.70;99.90
25024;DHT22;13033;50.936;5.334;2024-01-06T01:26:34;8.60;99.90
25024;DHT22;13033;50.936;5.334;2024-01-06T01:28:59;8.40;99.90
25024;DHT22;13033;50.936;5.334;2024-01-06T01:31:25;8.40;99.90
25024;DHT22;13033;50.936;5.334;2024-01-06T01:33:51;8.40;99.90
25024;DHT22;13033;50.936;5.334;2024-01-06T01:36:16;8.40;99.90
25024;DHT22;13033;50.936;5.334;2024-01-06T01:38:43;8.40;99.90
25024;DHT22;13033;50.936;5.334;2024-01-06T01:41:09;8.50;99.90
25024;DHT22;13033;50.936;5.334;2024-01-06T01:43:35;8.30;99.90
25024;DHT22;13033;50.936;5.334;2024-01-06T01:46:00;8.30;99.90
25024;DHT22;13033;50.936;5.334;2024-01-06T01:48:27;8.20;99.90
25024;DHT22;13033;50.936;5.334;2024-01-06T01:50:53;8.10;99.90
25024;DHT22;13033;50.936;5.334;2024-01-06T01:53:20;8.10;99.90
25024;DHT22;13033;50.936;5.334;2024-01-06T01:55:47;8.10;99.90
25024;DHT22;13033;50.936;5.334;2024-01-06T01:58:14;8.10;99.90
25024;DHT22;13033;50.936;5.334;2024-01-06T02:00:41;8.00;99.90
25024;DHT22;13033;50.936;5.334;2024-01-06T02:03:07;8.10;99.90
25024;DHT22;13033;50.936;5.334;2024-01-06T02:05:34;8.10;99.90
25024;DHT22;13033;50.936;5.334;2024-01-06T02:08:00;8.10;99.90
25024;DHT22;13033;50.936;5.334;2024-01-06T02:10:26;8.10;99.90
25024;DHT22;13033;50.936;5.334;2024-01-06T02:12:51;8.10;99.90
25024;DHT22;13033;50.936;5.334;2024-01-06T02:15:18;8.20;99.90
25024;DHT22;13033;50.936;5.334;2024-01-06T02:17:44;8.20;99.90
25024;DHT22;13033;50.936;5.334;2024-01-06T02:20:11;8.30;99.90
25024;DHT22;13033;50.936;5.334;2024-01-06T02:22:38;8.30;99.90
25024;DHT22;13033;50.936;5.334;2024-01-06T02:25:07;8.40;99.90
25024;DHT22;13033;50.936;5.334;2024-01-06T02:27:40;8.30;99.90
25024;DHT22;13033;50.936;5.334;2024-01-06T02:30:07;8.30;99.90
25024;DHT22;13033;50.936;5.334;2024-01-06T02:32:33;8.20;99.90
25024;DHT22;13033;50.936;5.334;2024-01-06T02:34:58;8.20;99.90
25024;DHT22;13033;50.936;5.334;2024-01-06T02:37:24;8.30;99.90
25024;DHT22;13033;50.936;5.334;2024-01-06T02:39:52;8.30;99.90
25024;DHT22;13033;50.936;5.334;2024-01-06T02:42:18;8.40;99.90
25024;DHT22;13033;50.936;5.334;2024-01-06T02:44:44;8.30;99.90
25024;DHT22;13033;50.936;5.334;2024-01-06T02:47:10;8.20;99.90
25024;DHT22;13033;50.936;5.334;2024-01-06T02:49:36;8.10;99.90
25024;DHT22;13033;50.936;5.334;2024-01-06T02:52:01;7.90;99.90
25024;DHT22;13033;50.936;5.334;2024-01-06T02:54:27;7.70;99.90
25024;DHT22;13033;50.936;5.334;2024-01-06T02:56:53;7.70;99.90
25024;DHT22;13033;50.936;5.334;2024-01-06T02:59:18;7.60;99.90
25024;DHT22;13033;50.936;5.334;2024-01-06T03:01:44;7.60;99.90
25024;DHT22;13033;50.936;5.334;2024-01-06T03:04:10;7.60;99.90
25024;DHT22;13033;50.936;5.334;2024-01-06T03:06:35;7.80;99.90
25024;DHT22;13033;50.936;5.334;2024-01-06T03:09:01;7.70;99.90
25024;DHT22;13033;50.936;5.334;2024-01-06T03:11:27;7.70;99.90
25024;DHT22;13033;50.936;5.334;2024-01-06T03:13:54;7.70;99.90
25024;DHT22;13033;50.936;5.334;2024-01-06T03:16:20;7.70;99.90
25024;DHT22;13033;50.936;5.334;2024-01-06T03:18:46;7.50;99.90
25024;DHT22;13033;50.936;5.334;2024-01-06T03:21:21;7.50;99.90
25024;DHT22;13033;50.936;5.334;2024-01-06T03:23:48;7.40;99.90
25024;DHT22;13033;50.936;5.334;2024-01-06T03:26:14;7.40;99.90
25024;DHT22;13033;50.936;5.334;2024-01-06T03:28:40;7.50;99.90
25024;DHT22;13033;50.936;5.334;2024-01-06T03:31:05;7.60;99.90
25024;DHT22;13033;50.936;5.334;2024-01-06T03:33:31;7.60;99.90
25024;DHT22;13033;50.936;5.334;2024-01-06T03:35:57;7.60;99.90
25024;DHT22;13033;50.936;5.334;2024-01-06T03:38:23;7.60;99.90
25024;DHT22;13033;50.936;5.334;2024-01-06T03:40:49;7.60;99.90
25024;DHT22;13033;50.936;5.334;2024-01-06T03:43:14;7.80;99.90
25024;DHT22;13033;50.936;5.334;2024-01-06T03:45:40;8.00;99.90
25024;DHT22;13033;50.936;5.334;2024-01-06T03:48:06;8.10;99.90
25024;DHT22;13033;50.936;5.334;2024-01-06T03:50:32;8.10;99.90
25024;DHT22;13033;50.936;5.334;2024-01-06T03:52:58;8.00;99.90
25024;DHT22;13033;50.936;5.334;2024-01-06T03:55:23;8.00;99.90
25024;DHT22;13033;50.936;5.334;2024-01-06T03:57:49;8.00;99.90
25024;DHT22;13033;50.936;5.334;2024-01-06T04:00:15;7.80;99.90
25024;DHT22;13033;50.936;5.334;2024-01-06T04:02:41;7.70;99.90
25024;DHT22;13033;50.936;5.334;2024-01-06T04:05:06;7.50;99.90
25024;DHT22;13033;50.936;5.334;2024-01-06T04:07:32;7.30;99.90
25024;DHT22;13033;50.936;5.334;2024-01-06T04:09:58;7.30;99.90
25024;DHT22;13033;50.936;5.334;2024-01-06T04:12:23;7.10;99.90
25024;DHT22;13033;50.936;5.334;2024-01-06T04:14:49;7.00;99.90
25024;DHT22;13033;50.936;5.334;2024-01-06T04:17:15;7.20;99.90
25024;DHT22;13033;50.936;5.334;2024-01-06T04:19:40;7.30;99.90
25024;DHT22;13033;50.936;5.334;2024-01-06T04:22:06;7.30;99.90
25024;DHT22;13033;50.936;5.334;2024-01-06T04:24:32;7.30;99.90
25024;DHT22;13033;50.936;5.334;2024-01-06T04:26:59;7.30;99.90
25024;DHT22;13033;50.936;5.334;2024-01-06T04:29:25;7.60;99.90
25024;DHT22;13033;50.936;5.334;2024-01-06T04:31:51;7.50;99.90
25024;DHT22;13033;50.936;5.334;2024-01-06T04:34:16;7.40;99.90
25024;DHT22;13033;50.936;5.334;2024-01-06T04:36:43;7.40;99.90
25024;DHT22;13033;50.936;5.334;2024-01-06T04:39:08;7.20;99.90
25024;DHT22;13033;50.936;5.334;2024-01-06T04:41:34;7.20;99.90
25024;DHT22;13033;50.936;5.334;2024-01-06T04:44:00;7.10;99.90
25024;DHT22;13033;50.936;5.334;2024-01-06T04:46:25;7.10;99.90
25024;DHT22;13033;50.936;5.334;2024-01-06T04:48:51;7.10;99.90
25024;DHT22;13033;50.936;5.334;2024-01-06T04:51:17;7.20;99.90
25024;DHT22;13033;50.936;5.334;2024-01-06T04:53:42;7.20;99.90
25024;DHT22;13033;50.936;5.334;2024-01-06T04:56:08;7.20;99.90
25024;DHT22;13033;50.936;5.334;2024-01-06T04:58:34;7.20;99.90
25024;DHT22;13033;50.936;5.334;2024-01-06T05:01:01;7.20;99.90
25024;DHT22;13033;50.936;5.334;2024-01-06T05:03:27;7.00;99.90
25024;DHT22;13033;50.936;5.334;2024-01-06T05:05:53;6.90;99.90
25024;DHT22;13033;50.936;5.334;2024-01-06T05:08:18;7.00;99.90
25024;DHT22;13033;50.936;5.334;2024-01-06T05:10:44;6.90;99.90
25024;DHT22;13033;50.936;5.334;2024-01-06T05:13:12;6.80;99.90
25024;DHT22;13033;50.936;5.334;2024-01-06T05:15:37;6.80;99.90
25024;DHT22;13033;50.936;5.334;2024-01-06T05:18:03;6.80;99.90
25024;DHT22;13033;50.936;5.334;2024-01-06T05:20:29;6.70;99.90
25024;DHT22;13033;50.936;5.334;2024-01-06T05:22:55;6.70;99.90
25024;DHT22;13033;50.936;5.334;2024-01-06T05:25:20;6.80;99.90
25024;DHT22;13033;50.936;5.334;2024-01-06T05:27:46;6.70;99.90
25024;DHT22;13033;50.936;5.334;2024-01-06T05:30:12;6.70;99.90
25024;DHT22;13033;50.936;5.334;2024-01-06T05:32:38;6.70;99.90
25024;DHT22;13033;50.936;5.334;2024-01-06T05:35:04;6.70;99.90
25024;DHT22;13033;50.936;5.334;2024-01-06T05:37:31;6.80;99.90
25024;DHT22;13033;50.936;5.334;2024-01-06T05:39:57;6.70;99.90
25024;DHT22;13033;50.936;5.334;2024-01-06T05:42:26;6.60;99.90
25024;DHT22;13033;50.936;5.334;2024-01-06T05:44:52;6.60;99.90
25024;DHT22;13033;50.936;5.334;2024-01-06T05:47:18;6.60;99.90
25024;DHT22;13033;50.936;5.334;2024-01-06T05:49:43;6.50;99.90
25024;DHT22;13033;50.936;5.334;2024-01-06T05:52:10;6.50;99.90
25024;DHT22;13033;50.936;5.334;2024-01-06T05:54:35;6.50;99.90
25024;DHT22;13033;50.936;5.334;2024-01-06T05:57:01;6.50;99.90
25024;DHT22;13033;50.936;5.334;2024-01-06T05:59:27;6.60;99.90
25024;DHT22;13033;50.936;5.334;2024-01-06T06:01:53;6.60;99.90
25024;DHT22;13033;50.936;5.334;2024-01-06T06:04:19;6.40;99.90
25024;DHT22;13033;50.936;5.334;2024-01-06T06:06:44;6.50;99.90
25024;DHT22;13033;50.936;5.334;2024-01-06T06:09:10;6.70;99.90
25024;DHT22;13033;50.936;5.334;2024-01-06T06:11:36;6.60;99.90
25024;DHT22;13033;50.936;5.334;2024-01-06T06:14:02;6.60;99.90
25024;DHT22;13033;50.936;5.334;2024-01-06T06:16:28;6.70;99.90
25024;DHT22;13033;50.936;5.334;2024-01-06T06:18:55;6.80;99.90
25024;DHT22;13033;50.936;5.334;2024-01-06T06:21:20;6.80;99.90
25024;DHT22;13033;50.936;5.334;2024-01-06T06:23:46;6.90;99.90
25024;DHT22;13033;50.936;5.334;2024-01-06T06:26:12;7.00;99.90
25024;DHT22;13033;50.936;5.334;2024-01-06T06:28:38;6.80;99.90
25024;DHT22;13033;50.936;5.334;2024-01-06T06:31:04;6.70;99.90
25024;DHT22;13033;50.936;5.334;2024-01-06T06:33:29;6.80;99.90
25024;DHT22;13033;50.936;5.334;2024-01-06T06:35:55;6.70;99.90
25024;DHT22;13033;50.936;5.334;2024-01-06T06:38:21;6.70;99.90
25024;DHT22;13033;50.936;5.334;2024-01-06T06:40:47;6.60;99.90
25024;DHT22;13033;50.936;5.334;2024-01-06T06:43:13;6.70;99.90
25024;DHT22;13033;50.936;5.334;2024-01-06T06:45:39;6.70;99.90
25024;DHT22;13033;50.936;5.334;2024-01-06T06:48:05;6.50;99.90
25024;DHT22;13033;50.936;5.334;2024-01-06T06:50:31;6.50;99.90
25024;DHT22;13033;50.936;5.334;2024-01-06T06:52:56;6.60;99.90
25024;DHT22;13033;50.936;5.334;2024-01-06T06:55:22;6.70;99.90
25024;DHT22;13033;50.936;5.334;2024-01-06T06:57:48;6.60;99.90
25024;DHT22;13033;50.936;5.334;2024-01-06T07:00:13;6.60;99.90
25024;DHT22;13033;50.936;5.334;2024-01-06T07:02:40;6.70;99.90
25024;DHT22;13033;50.936;5.334;2024-01-06T07:05:06;6.50;99.90
25024;DHT22;13033;50.936;5.334;2024-01-06T07:07:33;6.60;99.90
25024;DHT22;13033;50.936;5.334;2024-01-06T07:10:00;6.50;99.90
25024;DHT22;13033;50.936;5.334;2024-01-06T07:12:27;6.40;99.90
25024;DHT22;13033;50.936;5.334;2024-01-06T07:14:53;6.40;99.90
25024;DHT22;13033;50.936;5.334;2024-01-06T07:17:18;6.40;99.90
25024;DHT22;13033;50.936;5.334;2024-01-06T07:19:44;6.40;99.90
25024;DHT22;13033;50.936;5.334;2024-01-06T07:22:10;6.60;99.90
25024;DHT22;13033;50.936;5.334;2024-01-06T07:24:36;6.60;99.90
25024;DHT22;13033;50.936;5.334;2024-01-06T07:27:02;6.70;99.90
25024;DHT22;13033;50.936;5.334;2024-01-06T07:29:31;6.90;99.90
25024;DHT22;13033;50.936;5.334;2024-01-06T07:31:57;6.70;99.90
25024;DHT22;13033;50.936;5.334;2024-01-06T07:34:22;6.60;99.90
25024;DHT22;13033;50.936;5.334;2024-01-06T07:36:48;6.40;99.90
25024;DHT22;13033;50.936;5.334;2024-01-06T07:39:14;6.30;99.90
25024;DHT22;13033;50.936;5.334;2024-01-06T07:41:39;6.30;99.90
25024;DHT22;13033;50.936;5.334;2024-01-06T07:44:05;6.30;99.90
25024;DHT22;13033;50.936;5.334;2024-01-06T07:46:31;6.30;99.90
25024;DHT22;13033;50.936;5.334;2024-01-06T07:48:57;6.20;99.90
25024;DHT22;13033;50.936;5.334;2024-01-06T07:51:23;6.00;99.90
25024;DHT22;13033;50.936;5.334;2024-01-06T07:53:48;6.20;99.90
25024;DHT22;13033;50.936;5.334;2024-01-06T07:56:14;6.00;99.90
25024;DHT22;13033;50.936;5.334;2024-01-06T07:58:40;6.10;99.90
25024;DHT22;13033;50.936;5.334;2024-01-06T08:01:05;6.10;99.90
25024;DHT22;13033;50.936;5.334;2024-01-06T08:03:31;6.20;99.90
25024;DHT22;13033;50.936;5.334;2024-01-06T08:05:57;6.30;99.90
25024;DHT22;13033;50.936;5.334;2024-01-06T08:08:22;6.20;99.90
25024;DHT22;13033;50.936;5.334;2024-01-06T08:10:48;6.10;99.90
25024;DHT22;13033;50.936;5.334;2024-01-06T08:13:14;6.00;99.90
25024;DHT22;13033;50.936;5.334;2024-01-06T08:15:39;6.30;99.90
25024;DHT22;13033;50.936;5.334;2024-01-06T08:18:05;6.30;99.90
25024;DHT22;13033;50.936;5.334;2024-01-06T08:20:31;6.40;99.90
25024;DHT22;13033;50.936;5.334;2024-01-06T08:22:57;6.30;99.90
25024;DHT22;13033;50.936;5.334;2024-01-06T08:25:24;6.50;99.90
25024;DHT22;13033;50.936;5.334;2024-01-06T08:27:49;6.30;99.90
25024;DHT22;13033;50.936;5.334;2024-01-06T08:30:15;6.50;99.90
25024;DHT22;13033;50.936;5.334;2024-01-06T08:32:41;6.50;99.90
25024;DHT22;13033;50.936;5.334;2024-01-06T08:35:06;6.50;99.90
25024;DHT22;13033;50.936;5.334;2024-01-06T08:37:32;6.50;99.90
25024;DHT22;13033;50.936;5.334;2024-01-06T08:39:58;6.40;99.90
25024;DHT22;13033;50.936;5.334;2024-01-06T08:42:23;6.20;99.90
25024;DHT22;13033;50.936;5.334;2024-01-06T08:44:51;6.40;99.90
25024;DHT22;13033;50.936;5.334;2024-01-06T08:47:17;6.60;99.90
25024;DHT22;13033;50.936;5.334;2024-01-06T08:49:42;6.40;99.90
25024;DHT22;13033;50.936;5.334;2024-01-06T08:52:08;6.60;99.90
25024;DHT22;13033;50.936;5.334;2024-01-06T08:54:34;6.40;99.90
25024;DHT22;13033;50.936;5.334;2024-01-06T08:57:00;6.20;99.90
25024;DHT22;13033;50.936;5.334;2024-01-06T08:59:27;6.40;99.90
25024;DHT22;13033;50.936;5.334;2024-01-06T09:01:53;6.40;99.90
25024;DHT22;13033;50.936;5.334;2024-01-06T09:04:25;6.30;99.90
25024;DHT22;13033;50.936;5.334;2024-01-06T09:06:50;6.40;99.90
25024;DHT22;13033;50.936;5.334;2024-01-06T09:09:19;6.40;99.90
25024;DHT22;13033;50.936;5.334;2024-01-06T09:11:45;6.20;99.90
25024;DHT22;13033;50.936;5.334;2024-01-06T09:14:12;6.10;99.90
25024;DHT22;13033;50.936;5.334;2024-01-06T09:16:38;6.20;99.90
25024;DHT22;13033;50.936;5.334;2024-01-06T09:19:03;6.30;99.90
25024;DHT22;13033;50.936;5.334;2024-01-06T09:21:29;6.40;99.90
25024;DHT22;13033;50.936;5.334;2024-01-06T09:23:54;6.60;99.90
25024;DHT22;13033;50.936;5.334;2024-01-06T09:26:20;6.50;99.90
25024;DHT22;13033;50.936;5.334;2024-01-06T09:28:46;6.50;99.90
25024;DHT22;13033;50.936;5.334;2024-01-06T09:31:12;6.50;99.90
25024;DHT22;13033;50.936;5.334;2024-01-06T09:33:37;6.30;99.90
25024;DHT22;13033;50.936;5.334;2024-01-06T09:36:04;6.20;99.90
25024;DHT22;13033;50.936;5.334;2024-01-06T09:38:31;6.50;99.90
25024;DHT22;13033;50.936;5.334;2024-01-06T09:40:58;6.40;99.90
25024;DHT22;13033;50.936;5.334;2024-01-06T09:43:23;6.30;99.90
25024;DHT22;13033;50.936;5.334;2024-01-06T09:45:58;6.30;99.90
25024;DHT22;13033;50.936;5.334;2024-01-06T09:48:29;6.40;99.90
25024;DHT22;13033;50.936;5.334;2024-01-06T09:51:02;6.50;99.90
25024;DHT22;13033;50.936;5.334;2024-01-06T09:53:34;6.20;99.90
25024;DHT22;13033;50.936;5.334;2024-01-06T09:56:02;6.00;99.90
25024;DHT22;13033;50.936;5.334;2024-01-06T09:58:28;6.00;99.90
25024;DHT22;13033;50.936;5.334;2024-01-06T10:00:59;5.90;99.90
25024;DHT22;13033;50.936;5.334;2024-01-06T10:03:25;6.00;99.90
25024;DHT22;13033;50.936;5.334;2024-01-06T10:05:52;6.00;99.90
25024;DHT22;13033;50.936;5.334;2024-01-06T10:08:20;6.10;99.90
25024;DHT22;13033;50.936;5.334;2024-01-06T10:10:45;6.00;99.90
25024;DHT22;13033;50.936;5.334;2024-01-06T10:13:17;6.10;99.90
25024;DHT22;13033;50.936;5.334;2024-01-06T10:15:43;6.20;99.90
25024;DHT22;13033;50.936;5.334;2024-01-06T10:18:09;6.20;99.90
25024;DHT22;13033;50.936;5.334;2024-01-06T10:20:35;6.30;99.90
25024;DHT22;13033;50.936;5.334;2024-01-06T10:23:05;6.40;99.90
25024;DHT22;13033;50.936;5.334;2024-01-06T10:25:32;6.40;99.90
25024;DHT22;13033;50.936;5.334;2024-01-06T10:28:01;6.50;99.90
25024;DHT22;13033;50.936;5.334;2024-01-06T10:30:28;6.60;99.90
25024;DHT22;13033;50.936;5.334;2024-01-06T10:32:54;6.60;99.90
25024;DHT22;13033;50.936;5.334;2024-01-06T10:35:20;6.50;99.90
25024;DHT22;13033;50.936;5.334;2024-01-06T10:37:47;6.50;99.90
25024;DHT22;13033;50.936;5.334;2024-01-06T10:40:16;6.70;99.90
25024;DHT22;13033;50.936;5.334;2024-01-06T10:42:42;6.70;99.90
25024;DHT22;13033;50.936;5.334;2024-01-06T10:45:10;6.60;99.90
25024;DHT22;13033;50.936;5.334;2024-01-06T10:47:38;6.50;99.90
25024;DHT22;13033;50.936;5.334;2024-01-06T10:50:04;6.50;99.90
25024;DHT22;13033;50.936;5.334;2024-01-06T10:52:31;6.50;99.90
25024;DHT22;13033;50.936;5.334;2024-01-06T10:54:57;6.50;99.90
25024;DHT22;13033;50.936;5.334;2024-01-06T10:57:24;6.60;99.90
25024;DHT22;13033;50.936;5.334;2024-01-06T10:59:51;6.70;99.90
25024;DHT22;13033;50.936;5.334;2024-01-06T11:02:17;7.10;99.90
25024;DHT22;13033;50.936;5.334;2024-01-06T11:04:47;7.30;99.90
25024;DHT22;13033;50.936;5.334;2024-01-06T11:07:17;7.60;99.90
25024;DHT22;13033;50.936;5.334;2024-01-06T11:10:05;7.50;99.90
25024;DHT22;13033;50.936;5.334;2024-01-06T11:12:32;7.40;99.90
25024;DHT22;13033;50.936;5.334;2024-01-06T11:14:58;7.20;99.90
25024;DHT22;13033;50.936;5.334;2024-01-06T11:17:52;7.10;99.90
25024;DHT22;13033;50.936;5.334;2024-01-06T11:20:19;7.00;99.90
25024;DHT22;13033;50.936;5.334;2024-01-06T11:22:47;6.80;99.90
25024;DHT22;13033;50.936;5.334;2024-01-06T11:25:18;6.80;99.90
25024;DHT22;13033;50.936;5.334;2024-01-06T11:27:46;6.60;99.90
25024;DHT22;13033;50.936;5.334;2024-01-06T11:30:26;6.70;99.90
25024;DHT22;13033;50.936;5.334;2024-01-06T11:32:56;6.90;99.90
25024;DHT22;13033;50.936;5.334;2024-01-06T11:35:26;6.70;99.90
25024;DHT22;13033;50.936;5.334;2024-01-06T11:37:54;6.60;99.90
25024;DHT22;13033;50.936;5.334;2024-01-06T11:43:04;6.30;99.90
25024;DHT22;13033;50.936;5.334;2024-01-06T11:45:31;6.40;99.90
25024;DHT22;13033;50.936;5.334;2024-01-06T11:48:03;6.40;99.90
25024;DHT22;13033;50.936;5.334;2024-01-06T11:50:34;6.60;99.90
25024;DHT22;13033;50.936;5.334;2024-01-06T11:53:01;6.70;99.90
25024;DHT22;13033;50.936;5.334;2024-01-06T11:55:27;6.70;99.90
25024;DHT22;13033;50.936;5.334;2024-01-06T11:58:00;6.90;99.90
25024;DHT22;13033;50.936;5.334;2024-01-06T12:00:34;7.00;99.90
25024;DHT22;13033;50.936;5.334;2024-01-06T12:03:04;7.00;99.90
25024;DHT22;13033;50.936;5.334;2024-01-06T12:05:30;6.90;99.90
25024;DHT22;13033;50.936;5.334;2024-01-06T12:07:57;6.60;99.90
25024;DHT22;13033;50.936;5.334;2024-01-06T12:10:25;6.70;99.90
25024;DHT22;13033;50.936;5.334;2024-01-06T12:13:11;6.70;99.90
25024;DHT22;13033;50.936;5.334;2024-01-06T12:15:37;6.50;99.90
25024;DHT22;13033;50.936;5.334;2024-01-06T12:18:05;6.40;99.90
25024;DHT22;13033;50.936;5.334;2024-01-06T12:20:31;6.30;99.90
25024;DHT22;13033;50.936;5.334;2024-01-06T12:22:57;6.10;99.90
25024;DHT22;13033;50.936;5.334;2024-01-06T12:25:25;6.20;99.90
25024;DHT22;13033;50.936;5.334;2024-01-06T12:27:52;6.10;99.90
25024;DHT22;13033;50.936;5.334;2024-01-06T12:30:21;6.10;99.90
25024;DHT22;13033;50.936;5.334;2024-01-06T12:32:48;6.10;99.90
25024;DHT22;13033;50.936;5.334;2024-01-06T12:35:17;6.20;99.90
25024;DHT22;13033;50.936;5.334;2024-01-06T12:37:45;6.40;99.90
25024;DHT22;13033;50.936;5.334;2024-01-06T12:40:12;6.60;99.90
25024;DHT22;13033;50.936;5.334;2024-01-06T12:42:38;6.50;99.90
25024;DHT22;13033;50.936;5.334;2024-01-06T12:45:06;6.60;99.90
25024;DHT22;13033;50.936;5.334;2024-01-06T12:47:32;6.20;99.90
25024;DHT22;13033;50.936;5.334;2024-01-06T12:49:58;6.40;99.90
25024;DHT22;13033;50.936;5.334;2024-01-06T12:52:24;6.20;99.90
25024;DHT22;13033;50.936;5.334;2024-01-06T12:54:50;6.20;99.90
25024;DHT22;13033;50.936;5.334;2024-01-06T12:57:16;6.30;99.90
25024;DHT22;13033;50.936;5.334;2024-01-06T12:59:41;6.50;99.90
25024;DHT22;13033;50.936;5.334;2024-01-06T13:02:07;6.50;99.90
25024;DHT22;13033;50.936;5.334;2024-01-06T13:04:38;6.60;99.90
25024;DHT22;13033;50.936;5.334;2024-01-06T13:07:04;6.50;99.90
25024;DHT22;13033;50.936;5.334;2024-01-06T13:09:30;6.60;99.90
25024;DHT22;13033;50.936;5.334;2024-01-06T13:11:56;6.50;99.90
25024;DHT22;13033;50.936;5.334;2024-01-06T13:14:26;6.50;99.90
25024;DHT22;13033;50.936;5.334;2024-01-06T13:16:52;6.20;99.90
25024;DHT22;13033;50.936;5.334;2024-01-06T13:19:18;6.10;99.90
25024;DHT22;13033;50.936;5.334;2024-01-06T13:21:45;6.20;99.90
25024;DHT22;13033;50.936;5.334;2024-01-06T13:24:10;6.30;99.90
25024;DHT22;13033;50.936;5.334;2024-01-06T13:26:37;6.30;99.90
25024;DHT22;13033;50.936;5.334;2024-01-06T13:29:03;6.20;99.90
25024;DHT22;13033;50.936;5.334;2024-01-06T13:31:29;6.10;99.90
25024;DHT22;13033;50.936;5.334;2024-01-06T13:33:56;5.90;99.90
25024;DHT22;13033;50.936;5.334;2024-01-06T13:36:22;6.00;99.90
25024;DHT22;13033;50.936;5.334;2024-01-06T13:38:47;5.90;99.90
25024;DHT22;13033;50.936;5.334;2024-01-06T13:41:14;6.10;99.90
25024;DHT22;13033;50.936;5.334;2024-01-06T13:43:40;6.10;99.90
25024;DHT22;13033;50.936;5.334;2024-01-06T13:46:06;6.00;99.90
25024;DHT22;13033;50.936;5.334;2024-01-06T13:48:31;5.90;99.90
25024;DHT22;13033;50.936;5.334;2024-01-06T13:50:57;5.90;99.90
25024;DHT22;13033;50.936;5.334;2024-01-06T13:53:24;6.00;99.90
25024;DHT22;13033;50.936;5.334;2024-01-06T13:55:50;6.20;99.90
25024;DHT22;13033;50.936;5.334;2024-01-06T13:58:16;6.10;99.90
25024;DHT22;13033;50.936;5.334;2024-01-06T14:00:43;5.90;99.90
25024;DHT22;13033;50.936;5.334;2024-01-06T14:03:09;6.00;99.90
25024;DHT22;13033;50.936;5.334;2024-01-06T14:05:35;6.10;99.90
25024;DHT22;13033;50.936;5.334;2024-01-06T14:08:01;6.10;99.90
25024;DHT22;13033;50.936;5.334;2024-01-06T14:10:27;5.90;99.90
25024;DHT22;13033;50.936;5.334;2024-01-06T14:12:53;5.80;99.90
25024;DHT22;13033;50.936;5.334;2024-01-06T14:15:20;5.90;99.90
25024;DHT22;13033;50.936;5.334;2024-01-06T14:17:47;5.90;99.90
25024;DHT22;13033;50.936;5.334;2024-01-06T14:20:15;6.10;99.90
25024;DHT22;13033;50.936;5.334;2024-01-06T14:22:44;6.20;99.90
25024;DHT22;13033;50.936;5.334;2024-01-06T14:25:11;6.00;99.90
25024;DHT22;13033;50.936;5.334;2024-01-06T14:27:38;5.90;99.90
25024;DHT22;13033;50.936;5.334;2024-01-06T14:30:04;5.80;99.90
25024;DHT22;13033;50.936;5.334;2024-01-06T14:32:32;5.80;99.90
25024;DHT22;13033;50.936;5.334;2024-01-06T14:34:58;5.80;99.90
25024;DHT22;13033;50.936;5.334;2024-01-06T14:37:24;5.70;99.90
25024;DHT22;13033;50.936;5.334;2024-01-06T14:39:50;5.70;99.90
25024;DHT22;13033;50.936;5.334;2024-01-06T14:42:15;5.70;99.90
25024;DHT22;13033;50.936;5.334;2024-01-06T14:44:41;5.60;99.90
25024;DHT22;13033;50.936;5.334;2024-01-06T14:47:07;5.70;99.90
25024;DHT22;13033;50.936;5.334;2024-01-06T14:49:33;5.80;99.90
25024;DHT22;13033;50.936;5.334;2024-01-06T14:52:00;5.70;99.90
25024;DHT22;13033;50.936;5.334;2024-01-06T14:54:27;5.90;99.90
25024;DHT22;13033;50.936;5.334;2024-01-06T14:56:57;6.10;99.90
25024;DHT22;13033;50.936;5.334;2024-01-06T14:59:23;6.10;99.90
25024;DHT22;13033;50.936;5.334;2024-01-06T15:01:49;6.00;99.90
25024;DHT22;13033;50.936;5.334;2024-01-06T15:04:15;5.90;99.90
25024;DHT22;13033;50.936;5.334;2024-01-06T15:06:42;5.80;99.90
25024;DHT22;13033;50.936;5.334;2024-01-06T15:09:08;5.90;99.90
25024;DHT22;13033;50.936;5.334;2024-01-06T15:11:34;6.00;99.90
25024;DHT22;13033;50.936;5.334;2024-01-06T15:14:01;5.80;99.90
25024;DHT22;13033;50.936;5.334;2024-01-06T15:16:30;5.80;99.90
25024;DHT22;13033;50.936;5.334;2024-01-06T15:18:56;5.80;99.90
25024;DHT22;13033;50.936;5.334;2024-01-06T15:21:24;5.70;99.90
25024;DHT22;13033;50.936;5.334;2024-01-06T15:23:51;5.90;99.90
25024;DHT22;13033;50.936;5.334;2024-01-06T15:26:24;6.00;99.90
25024;DHT22;13033;50.936;5.334;2024-01-06T15:28:50;5.90;99.90
25024;DHT22;13033;50.936;5.334;2024-01-06T15:31:16;5.90;99.90
25024;DHT22;13033;50.936;5.334;2024-01-06T15:33:42;5.50;99.90
25024;DHT22;13033;50.936;5.334;2024-01-06T15:36:09;5.40;99.90
25024;DHT22;13033;50.936;5.334;2024-01-06T15:38:35;5.50;99.90
25024;DHT22;13033;50.936;5.334;2024-01-06T15:41:00;5.50;99.90
25024;DHT22;13033;50.936;5.334;2024-01-06T15:43:26;5.40;99.90